LSMMLSMP

Guest
Details From LSMM - Meiringen
To LSMP - Payerne
Flight Number -
Tags generated
Created
Modified
Stats Distance 49 nm / 92 km
Max Altitude 5,100 ft / 1,554 m
Waypoints 3
Social Downloads 9
Likes 0
Share VATSIM

Download

Looking for another format? Having issues loading an existing format? Contact us
Advertisement - Login to hide

Notes

Basic altitude profile: - Ascent Rate: 2500ft/min - Ascent Speed: 250kts - Cruise Altitude: 35000ft - Cruise Speed: 420kts - Descent Rate: 1500ft/min - Descent Speed: 250kts

Route

LSMM GUDAX LSMP

ID Type Via Altitude Latitude Longitude Leg Dist Tot Dist Heading (true) Name
O LSMM APT - 0 ft / 0 m 46.74233˚ 8.10875˚ - 0 nm - Meiringen
GUDAX FIX - 5,100 ft / 1,554 m 46.78472˚ 7.49028˚ 25 nm 25 nm 276° / 275° -
O LSMP APT - 0 ft / 0 m 46.84320˚ 6.91506˚ 23 nm 49 nm 279° / 278° Payerne

Altitude Profile

Advertisement - Login to hide

LSMM

Details ICAO LSMM
Name Meiringen
Region Switzerland
Timezone Europe/Zurich (UTC+1.0)
Stats Elevation 1,879 ft / 573 m (AMSL)
Location 46.742327° 8.108747°
Runways 1
Magnetic Variation 2.236° E

METAR

LSMM 181050Z AUTO 00000KT 1000NDV R10/1600N R28/1500U +SN FEW008 M03/M03 Q1021 RMK

Decode

TAF

TAF LSMM 180925Z 1810/1916 VRB03KT 2500 -SN BKN014 PROB40 TEMPO 1810/1812 1000 SN VV005 BECMG 1814/1817 4000 BR PROB40 TEMPO 1817/1820 6000 BECMG 1820/1823 1500 BCFG BKN003 PROB40 1900/1905 0400 FZFG VV002 BECMG 1906/1909 4000 BR SCT015

Decode

Departure Runways

ID Width Length Bearing (true) Bearing (mag) Surface Threshold Offset Overrun Length
10 131 ft / 40 m 6,884 ft / 2,098 m 96.60° 94.36° Concrete 150 ft / 46 m 623 ft / 190 m
28 131 ft / 40 m 6,884 ft / 2,098 m 276.62° 274.38° Concrete 150 ft / 46 m 623 ft / 190 m

LSMP

Details ICAO LSMP
Name Payerne
Region Switzerland
Timezone Europe/Zurich (UTC+1.0)
Stats Elevation 1,465 ft / 447 m (AMSL)
Location 46.843204° 6.915057°
Runways 1
Magnetic Variation 1.936° E

METAR

LSMP 181050Z 23002KT 4100 -SN BR NSC 00/M01 Q1022 RMK GRN

Decode

TAF

TAF LSMP 180925Z 1810/1916 22007KT 3000 -SN FEW010 BKN014 TEMPO 1810/1812 1200 SN VV009 BECMG 1812/1815 VRB02KT 8000 NSW SCT020 BKN030

Decode

Destination Runways

ID Width Length Bearing (true) Bearing (mag) Surface Threshold Offset Overrun Length
05 131 ft / 40 m 9,365 ft / 2,854 m 48.29° 46.35° Asphalt 1,365 ft / 416 m 610 ft / 186 m
23 131 ft / 40 m 9,365 ft / 2,854 m 228.31° 226.37° Asphalt 1,358 ft / 414 m 640 ft / 195 m

Approach Navaids

Runway Type Ident Frequency Range Bearing (true) Bearing (mag) Slope Elevation
23 Localiser IPY 109.30 MHz 18 nm / 33 km 228.53° 226.60° - 1,465 ft / 447 m (AMSL)
23 Glidescope IPY 109.30 MHz 10 nm / 19 km 228.30° 226.36° 3.70° 1,456 ft / 444 m (AMSL)
23 DME IPY 109.30 MHz 18 nm / 33 km - - - 1,456 ft / 444 m (AMSL)